sensor_id;sensor_type;location;lat;lon;timestamp;P1;durP1;ratioP1;P2;durP2;ratioP2
52564;SDS011;38460;53.106;7.004;2023-07-20T00:01:13;2.30;;;1.38;;
52564;SDS011;38460;53.106;7.004;2023-07-20T00:03:38;1.92;;;1.30;;
52564;SDS011;38460;53.106;7.004;2023-07-20T00:06:04;2.10;;;1.38;;
52564;SDS011;38460;53.106;7.004;2023-07-20T00:08:30;3.53;;;1.50;;
52564;SDS011;38460;53.106;7.004;2023-07-20T00:10:56;3.55;;;1.75;;
52564;SDS011;38460;53.106;7.004;2023-07-20T00:13:22;2.28;;;1.55;;
52564;SDS011;38460;53.106;7.004;2023-07-20T00:15:48;4.13;;;1.95;;
52564;SDS011;38460;53.106;7.004;2023-07-20T00:18:13;3.22;;;1.90;;
52564;SDS011;38460;53.106;7.004;2023-07-20T00:20:39;3.70;;;1.85;;
52564;SDS011;38460;53.106;7.004;2023-07-20T00:23:05;3.88;;;2.30;;
52564;SDS011;38460;53.106;7.004;2023-07-20T00:25:31;3.72;;;2.65;;
52564;SDS011;38460;53.106;7.004;2023-07-20T00:27:58;3.88;;;2.30;;
52564;SDS011;38460;53.106;7.004;2023-07-20T00:30:24;4.63;;;1.98;;
52564;SDS011;38460;53.106;7.004;2023-07-20T00:32:50;3.92;;;2.25;;
52564;SDS011;38460;53.106;7.004;2023-07-20T00:35:15;6.03;;;2.78;;
52564;SDS011;38460;53.106;7.004;2023-07-20T00:37:41;5.28;;;2.30;;
52564;SDS011;38460;53.106;7.004;2023-07-20T00:40:07;4.55;;;2.60;;
52564;SDS011;38460;53.106;7.004;2023-07-20T00:42:33;4.72;;;2.40;;
52564;SDS011;38460;53.106;7.004;2023-07-20T00:44:59;3.22;;;2.25;;
52564;SDS011;38460;53.106;7.004;2023-07-20T00:47:25;3.58;;;2.03;;
52564;SDS011;38460;53.106;7.004;2023-07-20T00:49:52;3.90;;;2.50;;
52564;SDS011;38460;53.106;7.004;2023-07-20T00:52:18;3.97;;;2.22;;
52564;SDS011;38460;53.106;7.004;2023-07-20T00:54:47;2.90;;;2.20;;
52564;SDS011;38460;53.106;7.004;2023-07-20T00:57:16;3.63;;;2.20;;
52564;SDS011;38460;53.106;7.004;2023-07-20T00:59:43;3.08;;;2.03;;
52564;SDS011;38460;53.106;7.004;2023-07-20T01:02:09;3.08;;;2.03;;
52564;SDS011;38460;53.106;7.004;2023-07-20T01:04:35;3.13;;;2.00;;
52564;SDS011;38460;53.106;7.004;2023-07-20T01:07:17;3.20;;;1.83;;
52564;SDS011;38460;53.106;7.004;2023-07-20T01:12:50;3.13;;;2.30;;
52564;SDS011;38460;53.106;7.004;2023-07-20T01:15:17;3.65;;;2.40;;
52564;SDS011;38460;53.106;7.004;2023-07-20T01:17:43;3.03;;;2.45;;
52564;SDS011;38460;53.106;7.004;2023-07-20T01:20:10;3.40;;;2.30;;
52564;SDS011;38460;53.106;7.004;2023-07-20T01:33:21;4.95;;;3.00;;
52564;SDS011;38460;53.106;7.004;2023-07-20T01:36:00;3.63;;;3.20;;
52564;SDS011;38460;53.106;7.004;2023-07-20T01:38:26;3.83;;;2.20;;
52564;SDS011;38460;53.106;7.004;2023-07-20T01:40:53;3.88;;;2.70;;
52564;SDS011;38460;53.106;7.004;2023-07-20T01:43:19;5.35;;;3.13;;
52564;SDS011;38460;53.106;7.004;2023-07-20T01:45:45;6.22;;;3.55;;
52564;SDS011;38460;53.106;7.004;2023-07-20T01:48:11;4.82;;;3.38;;
52564;SDS011;38460;53.106;7.004;2023-07-20T01:50:36;4.97;;;4.10;;
52564;SDS011;38460;53.106;7.004;2023-07-20T01:53:02;5.70;;;3.78;;
52564;SDS011;38460;53.106;7.004;2023-07-20T01:55:28;5.43;;;4.03;;
52564;SDS011;38460;53.106;7.004;2023-07-20T01:57:54;5.90;;;3.70;;
52564;SDS011;38460;53.106;7.004;2023-07-20T02:00:20;6.53;;;3.92;;
52564;SDS011;38460;53.106;7.004;2023-07-20T02:02:49;5.10;;;4.03;;
52564;SDS011;38460;53.106;7.004;2023-07-20T02:05:15;4.78;;;4.03;;
52564;SDS011;38460;53.106;7.004;2023-07-20T02:07:41;5.55;;;3.92;;
52564;SDS011;38460;53.106;7.004;2023-07-20T02:10:07;6.63;;;4.25;;
52564;SDS011;38460;53.106;7.004;2023-07-20T02:12:33;6.60;;;3.95;;
52564;SDS011;38460;53.106;7.004;2023-07-20T02:14:59;5.30;;;3.97;;
52564;SDS011;38460;53.106;7.004;2023-07-20T02:17:25;5.03;;;4.30;;
52564;SDS011;38460;53.106;7.004;2023-07-20T02:19:54;6.95;;;4.80;;
52564;SDS011;38460;53.106;7.004;2023-07-20T02:22:21;6.07;;;4.70;;
52564;SDS011;38460;53.106;7.004;2023-07-20T02:24:47;5.72;;;4.15;;
52564;SDS011;38460;53.106;7.004;2023-07-20T02:27:13;7.75;;;4.18;;
52564;SDS011;38460;53.106;7.004;2023-07-20T02:29:40;5.80;;;4.50;;
52564;SDS011;38460;53.106;7.004;2023-07-20T02:32:06;5.40;;;3.85;;
52564;SDS011;38460;53.106;7.004;2023-07-20T02:34:33;6.45;;;4.40;;
52564;SDS011;38460;53.106;7.004;2023-07-20T02:36:59;6.55;;;5.03;;
52564;SDS011;38460;53.106;7.004;2023-07-20T02:39:29;4.88;;;3.88;;
52564;SDS011;38460;53.106;7.004;2023-07-20T02:41:55;6.78;;;4.28;;
52564;SDS011;38460;53.106;7.004;2023-07-20T02:44:21;6.53;;;4.60;;
52564;SDS011;38460;53.106;7.004;2023-07-20T02:46:47;5.13;;;4.20;;
52564;SDS011;38460;53.106;7.004;2023-07-20T02:49:14;7.07;;;4.20;;
52564;SDS011;38460;53.106;7.004;2023-07-20T02:51:40;4.78;;;3.78;;
52564;SDS011;38460;53.106;7.004;2023-07-20T02:54:06;6.95;;;3.83;;
52564;SDS011;38460;53.106;7.004;2023-07-20T02:56:33;5.95;;;3.97;;
52564;SDS011;38460;53.106;7.004;2023-07-20T02:58:59;7.32;;;4.47;;
52564;SDS011;38460;53.106;7.004;2023-07-20T03:01:26;4.78;;;3.42;;
52564;SDS011;38460;53.106;7.004;2023-07-20T03:03:54;5.88;;;4.05;;
52564;SDS011;38460;53.106;7.004;2023-07-20T03:06:20;5.20;;;3.78;;
52564;SDS011;38460;53.106;7.004;2023-07-20T03:08:46;8.07;;;4.18;;
52564;SDS011;38460;53.106;7.004;2023-07-20T03:11:16;7.32;;;4.28;;
52564;SDS011;38460;53.106;7.004;2023-07-20T03:13:43;9.23;;;4.93;;
52564;SDS011;38460;53.106;7.004;2023-07-20T03:16:10;9.15;;;4.47;;
52564;SDS011;38460;53.106;7.004;2023-07-20T03:18:40;7.72;;;4.70;;
52564;SDS011;38460;53.106;7.004;2023-07-20T03:21:07;7.82;;;4.72;;
52564;SDS011;38460;53.106;7.004;2023-07-20T03:23:33;9.20;;;4.70;;
52564;SDS011;38460;53.106;7.004;2023-07-20T03:26:00;7.93;;;4.50;;
52564;SDS011;38460;53.106;7.004;2023-07-20T03:28:26;7.78;;;5.03;;
52564;SDS011;38460;53.106;7.004;2023-07-20T03:30:58;5.75;;;4.43;;
52564;SDS011;38460;53.106;7.004;2023-07-20T03:33:27;6.70;;;4.03;;
52564;SDS011;38460;53.106;7.004;2023-07-20T03:35:54;5.50;;;4.07;;
52564;SDS011;38460;53.106;7.004;2023-07-20T03:38:21;5.85;;;3.83;;
52564;SDS011;38460;53.106;7.004;2023-07-20T03:40:50;5.43;;;3.80;;
52564;SDS011;38460;53.106;7.004;2023-07-20T03:43:21;4.45;;;3.80;;
52564;SDS011;38460;53.106;7.004;2023-07-20T03:45:47;6.68;;;4.07;;
52564;SDS011;38460;53.106;7.004;2023-07-20T03:48:17;5.95;;;3.95;;
52564;SDS011;38460;53.106;7.004;2023-07-20T03:50:45;5.28;;;3.80;;
52564;SDS011;38460;53.106;7.004;2023-07-20T03:53:11;5.95;;;4.18;;
52564;SDS011;38460;53.106;7.004;2023-07-20T03:55:37;4.70;;;3.35;;
52564;SDS011;38460;53.106;7.004;2023-07-20T03:58:05;4.72;;;4.10;;
52564;SDS011;38460;53.106;7.004;2023-07-20T04:00:31;5.03;;;3.70;;
52564;SDS011;38460;53.106;7.004;2023-07-20T04:02:57;5.38;;;4.32;;
52564;SDS011;38460;53.106;7.004;2023-07-20T04:05:24;5.72;;;4.45;;
52564;SDS011;38460;53.106;7.004;2023-07-20T04:07:50;4.57;;;3.67;;
52564;SDS011;38460;53.106;7.004;2023-07-20T04:10:16;5.60;;;4.07;;
52564;SDS011;38460;53.106;7.004;2023-07-20T04:12:43;5.45;;;3.97;;
52564;SDS011;38460;53.106;7.004;2023-07-20T04:15:10;6.78;;;4.22;;
52564;SDS011;38460;53.106;7.004;2023-07-20T04:17:36;5.88;;;3.83;;
52564;SDS011;38460;53.106;7.004;2023-07-20T04:20:01;4.57;;;3.53;;
52564;SDS011;38460;53.106;7.004;2023-07-20T04:22:28;4.60;;;3.70;;
52564;SDS011;38460;53.106;7.004;2023-07-20T04:24:54;4.80;;;3.30;;
52564;SDS011;38460;53.106;7.004;2023-07-20T04:27:19;5.25;;;3.60;;
52564;SDS011;38460;53.106;7.004;2023-07-20T04:29:45;5.65;;;3.70;;
52564;SDS011;38460;53.106;7.004;2023-07-20T04:32:11;5.45;;;4.03;;
52564;SDS011;38460;53.106;7.004;2023-07-20T04:34:36;4.68;;;3.25;;
52564;SDS011;38460;53.106;7.004;2023-07-20T04:37:05;6.30;;;4.63;;
52564;SDS011;38460;53.106;7.004;2023-07-20T04:39:31;5.90;;;3.90;;
52564;SDS011;38460;53.106;7.004;2023-07-20T04:41:57;5.20;;;4.32;;
52564;SDS011;38460;53.106;7.004;2023-07-20T04:44:23;5.95;;;4.43;;
52564;SDS011;38460;53.106;7.004;2023-07-20T04:46:49;5.32;;;3.90;;
52564;SDS011;38460;53.106;7.004;2023-07-20T04:49:15;5.95;;;4.10;;
52564;SDS011;38460;53.106;7.004;2023-07-20T04:51:41;7.00;;;4.68;;
52564;SDS011;38460;53.106;7.004;2023-07-20T04:54:06;11.15;;;5.25;;
52564;SDS011;38460;53.106;7.004;2023-07-20T04:56:32;4.93;;;3.55;;
52564;SDS011;38460;53.106;7.004;2023-07-20T04:58:58;5.60;;;4.22;;
52564;SDS011;38460;53.106;7.004;2023-07-20T05:01:24;6.45;;;4.57;;
52564;SDS011;38460;53.106;7.004;2023-07-20T05:03:51;6.53;;;3.90;;
52564;SDS011;38460;53.106;7.004;2023-07-20T05:06:17;7.35;;;4.57;;
52564;SDS011;38460;53.106;7.004;2023-07-20T05:08:43;5.43;;;4.00;;
52564;SDS011;38460;53.106;7.004;2023-07-20T05:11:09;4.97;;;4.13;;
52564;SDS011;38460;53.106;7.004;2023-07-20T05:13:36;6.00;;;5.20;;
52564;SDS011;38460;53.106;7.004;2023-07-20T05:16:01;6.00;;;4.90;;
52564;SDS011;38460;53.106;7.004;2023-07-20T05:18:27;7.38;;;4.95;;
52564;SDS011;38460;53.106;7.004;2023-07-20T05:20:53;7.70;;;4.50;;
52564;SDS011;38460;53.106;7.004;2023-07-20T05:23:20;6.25;;;4.75;;
52564;SDS011;38460;53.106;7.004;2023-07-20T05:25:46;7.80;;;4.90;;
52564;SDS011;38460;53.106;7.004;2023-07-20T05:28:12;6.90;;;4.53;;
52564;SDS011;38460;53.106;7.004;2023-07-20T05:30:37;7.90;;;3.70;;
52564;SDS011;38460;53.106;7.004;2023-07-20T05:33:04;6.10;;;4.45;;
52564;SDS011;38460;53.106;7.004;2023-07-20T05:35:30;5.65;;;4.22;;
52564;SDS011;38460;53.106;7.004;2023-07-20T05:37:56;7.03;;;4.15;;
52564;SDS011;38460;53.106;7.004;2023-07-20T05:40:22;7.85;;;3.53;;
52564;SDS011;38460;53.106;7.004;2023-07-20T05:42:48;5.60;;;3.58;;
52564;SDS011;38460;53.106;7.004;2023-07-20T05:45:17;7.07;;;3.83;;
52564;SDS011;38460;53.106;7.004;2023-07-20T05:47:43;5.10;;;3.28;;
52564;SDS011;38460;53.106;7.004;2023-07-20T05:50:09;5.63;;;3.33;;
52564;SDS011;38460;53.106;7.004;2023-07-20T05:52:36;6.25;;;3.30;;
52564;SDS011;38460;53.106;7.004;2023-07-20T05:55:04;5.28;;;3.00;;
52564;SDS011;38460;53.106;7.004;2023-07-20T05:57:30;6.03;;;3.05;;
52564;SDS011;38460;53.106;7.004;2023-07-20T05:59:56;4.03;;;3.22;;
52564;SDS011;38460;53.106;7.004;2023-07-20T06:02:22;7.45;;;3.20;;
52564;SDS011;38460;53.106;7.004;2023-07-20T06:04:47;3.85;;;3.13;;
52564;SDS011;38460;53.106;7.004;2023-07-20T06:07:13;4.47;;;3.47;;
52564;SDS011;38460;53.106;7.004;2023-07-20T06:09:39;6.28;;;3.95;;
52564;SDS011;38460;53.106;7.004;2023-07-20T06:12:05;4.85;;;3.50;;
52564;SDS011;38460;53.106;7.004;2023-07-20T06:14:31;4.10;;;3.38;;
52564;SDS011;38460;53.106;7.004;2023-07-20T06:16:57;4.65;;;3.38;;
52564;SDS011;38460;53.106;7.004;2023-07-20T06:19:23;5.72;;;3.17;;
52564;SDS011;38460;53.106;7.004;2023-07-20T06:21:48;4.68;;;2.80;;
52564;SDS011;38460;53.106;7.004;2023-07-20T06:24:15;6.40;;;3.10;;
52564;SDS011;38460;53.106;7.004;2023-07-20T06:26:41;5.00;;;2.72;;
52564;SDS011;38460;53.106;7.004;2023-07-20T06:29:07;4.05;;;2.53;;
52564;SDS011;38460;53.106;7.004;2023-07-20T06:31:34;4.82;;;2.50;;
52564;SDS011;38460;53.106;7.004;2023-07-20T06:34:01;5.18;;;2.63;;
52564;SDS011;38460;53.106;7.004;2023-07-20T06:36:27;5.75;;;2.58;;
52564;SDS011;38460;53.106;7.004;2023-07-20T06:38:53;4.25;;;2.22;;
52564;SDS011;38460;53.106;7.004;2023-07-20T06:41:19;7.75;;;2.00;;
52564;SDS011;38460;53.106;7.004;2023-07-20T06:43:45;2.42;;;1.50;;
52564;SDS011;38460;53.106;7.004;2023-07-20T06:46:11;2.20;;;1.65;;
52564;SDS011;38460;53.106;7.004;2023-07-20T06:48:37;3.85;;;1.60;;
52564;SDS011;38460;53.106;7.004;2023-07-20T06:51:02;2.20;;;1.20;;
52564;SDS011;38460;53.106;7.004;2023-07-20T06:53:32;3.33;;;1.40;;
52564;SDS011;38460;53.106;7.004;2023-07-20T06:55:58;3.03;;;1.55;;
52564;SDS011;38460;53.106;7.004;2023-07-20T06:58:24;2.72;;;1.30;;
52564;SDS011;38460;53.106;7.004;2023-07-20T07:00:50;2.45;;;1.25;;
52564;SDS011;38460;53.106;7.004;2023-07-20T07:03:16;3.15;;;1.50;;
52564;SDS011;38460;53.106;7.004;2023-07-20T07:05:42;2.40;;;1.45;;
52564;SDS011;38460;53.106;7.004;2023-07-20T07:08:10;3.45;;;1.40;;
52564;SDS011;38460;53.106;7.004;2023-07-20T07:10:37;5.47;;;1.80;;
52564;SDS011;38460;53.106;7.004;2023-07-20T07:13:03;3.45;;;1.52;;
52564;SDS011;38460;53.106;7.004;2023-07-20T07:15:28;3.05;;;1.30;;
52564;SDS011;38460;53.106;7.004;2023-07-20T07:17:54;2.33;;;1.52;;
52564;SDS011;38460;53.106;7.004;2023-07-20T07:20:20;2.85;;;1.50;;
52564;SDS011;38460;53.106;7.004;2023-07-20T07:22:46;2.75;;;1.33;;
52564;SDS011;38460;53.106;7.004;2023-07-20T07:25:13;3.08;;;1.42;;
52564;SDS011;38460;53.106;7.004;2023-07-20T07:27:39;5.65;;;1.52;;
52564;SDS011;38460;53.106;7.004;2023-07-20T07:30:05;2.92;;;1.30;;
52564;SDS011;38460;53.106;7.004;2023-07-20T07:32:31;5.00;;;1.90;;
52564;SDS011;38460;53.106;7.004;2023-07-20T07:34:58;4.53;;;1.45;;
52564;SDS011;38460;53.106;7.004;2023-07-20T07:37:25;4.05;;;1.92;;
52564;SDS011;38460;53.106;7.004;2023-07-20T07:39:51;2.60;;;1.38;;
52564;SDS011;38460;53.106;7.004;2023-07-20T07:42:17;3.80;;;1.70;;
52564;SDS011;38460;53.106;7.004;2023-07-20T07:44:44;2.42;;;1.48;;
52564;SDS011;38460;53.106;7.004;2023-07-20T07:47:09;3.38;;;1.48;;
52564;SDS011;38460;53.106;7.004;2023-07-20T07:49:35;3.20;;;1.40;;
52564;SDS011;38460;53.106;7.004;2023-07-20T07:52:01;3.85;;;1.30;;
52564;SDS011;38460;53.106;7.004;2023-07-20T07:54:27;2.90;;;1.60;;
52564;SDS011;38460;53.106;7.004;2023-07-20T07:56:54;3.10;;;1.80;;
52564;SDS011;38460;53.106;7.004;2023-07-20T07:59:19;3.78;;;1.83;;
52564;SDS011;38460;53.106;7.004;2023-07-20T08:01:45;3.17;;;1.58;;
52564;SDS011;38460;53.106;7.004;2023-07-20T08:04:11;5.47;;;1.85;;
52564;SDS011;38460;53.106;7.004;2023-07-20T08:06:38;3.30;;;1.70;;
52564;SDS011;38460;53.106;7.004;2023-07-20T08:09:03;2.83;;;1.60;;
52564;SDS011;38460;53.106;7.004;2023-07-20T08:11:30;3.45;;;1.73;;
52564;SDS011;38460;53.106;7.004;2023-07-20T08:13:58;5.38;;;1.98;;
52564;SDS011;38460;53.106;7.004;2023-07-20T08:16:25;3.50;;;1.58;;
52564;SDS011;38460;53.106;7.004;2023-07-20T08:18:51;4.47;;;1.60;;
52564;SDS011;38460;53.106;7.004;2023-07-20T08:21:16;3.72;;;1.75;;
52564;SDS011;38460;53.106;7.004;2023-07-20T08:23:42;5.03;;;2.00;;
52564;SDS011;38460;53.106;7.004;2023-07-20T08:26:08;6.82;;;2.15;;
52564;SDS011;38460;53.106;7.004;2023-07-20T08:28:34;3.13;;;1.42;;
52564;SDS011;38460;53.106;7.004;2023-07-20T08:31:00;6.00;;;1.77;;
52564;SDS011;38460;53.106;7.004;2023-07-20T08:33:26;4.10;;;2.05;;
52564;SDS011;38460;53.106;7.004;2023-07-20T08:35:54;6.30;;;1.98;;
52564;SDS011;38460;53.106;7.004;2023-07-20T08:38:21;6.50;;;2.38;;
52564;SDS011;38460;53.106;7.004;2023-07-20T08:40:47;4.25;;;2.05;;
52564;SDS011;38460;53.106;7.004;2023-07-20T08:43:13;5.00;;;1.73;;
52564;SDS011;38460;53.106;7.004;2023-07-20T08:45:42;5.60;;;2.03;;
52564;SDS011;38460;53.106;7.004;2023-07-20T08:48:10;3.70;;;1.40;;
52564;SDS011;38460;53.106;7.004;2023-07-20T08:50:37;3.80;;;1.48;;
52564;SDS011;38460;53.106;7.004;2023-07-20T08:53:04;4.53;;;1.65;;
52564;SDS011;38460;53.106;7.004;2023-07-20T08:55:31;3.00;;;1.40;;
52564;SDS011;38460;53.106;7.004;2023-07-20T08:57:57;5.95;;;1.40;;
52564;SDS011;38460;53.106;7.004;2023-07-20T09:00:24;4.95;;;1.73;;
52564;SDS011;38460;53.106;7.004;2023-07-20T09:02:52;4.13;;;1.85;;
52564;SDS011;38460;53.106;7.004;2023-07-20T09:05:19;4.97;;;1.40;;
52564;SDS011;38460;53.106;7.004;2023-07-20T09:07:46;4.18;;;1.50;;
52564;SDS011;38460;53.106;7.004;2023-07-20T09:10:12;3.80;;;1.83;;
52564;SDS011;38460;53.106;7.004;2023-07-20T09:12:39;3.45;;;1.63;;
52564;SDS011;38460;53.106;7.004;2023-07-20T09:15:07;3.47;;;1.30;;
52564;SDS011;38460;53.106;7.004;2023-07-20T09:17:33;5.00;;;1.35;;
52564;SDS011;38460;53.106;7.004;2023-07-20T09:20:03;4.65;;;1.98;;
52564;SDS011;38460;53.106;7.004;2023-07-20T09:22:33;3.03;;;1.40;;
52564;SDS011;38460;53.106;7.004;2023-07-20T09:24:59;3.85;;;1.40;;
52564;SDS011;38460;53.106;7.004;2023-07-20T09:27:35;2.30;;;1.10;;
52564;SDS011;38460;53.106;7.004;2023-07-20T09:30:02;5.40;;;1.30;;
52564;SDS011;38460;53.106;7.004;2023-07-20T09:32:28;2.50;;;1.20;;
52564;SDS011;38460;53.106;7.004;2023-07-20T09:34:54;4.00;;;1.30;;
52564;SDS011;38460;53.106;7.004;2023-07-20T09:37:20;3.10;;;1.30;;
52564;SDS011;38460;53.106;7.004;2023-07-20T09:39:47;3.33;;;1.45;;
52564;SDS011;38460;53.106;7.004;2023-07-20T09:42:14;4.50;;;1.30;;
52564;SDS011;38460;53.106;7.004;2023-07-20T09:44:42;2.80;;;1.20;;
52564;SDS011;38460;53.106;7.004;2023-07-20T09:47:09;3.63;;;1.25;;
52564;SDS011;38460;53.106;7.004;2023-07-20T09:49:40;4.38;;;1.45;;
52564;SDS011;38460;53.106;7.004;2023-07-20T09:52:07;3.63;;;1.60;;
52564;SDS011;38460;53.106;7.004;2023-07-20T09:54:35;3.40;;;1.30;;
52564;SDS011;38460;53.106;7.004;2023-07-20T09:57:03;2.50;;;1.52;;
52564;SDS011;38460;53.106;7.004;2023-07-20T09:59:32;3.47;;;1.10;;
52564;SDS011;38460;53.106;7.004;2023-07-20T10:01:58;3.13;;;1.42;;
52564;SDS011;38460;53.106;7.004;2023-07-20T10:04:30;3.08;;;1.20;;
52564;SDS011;38460;53.106;7.004;2023-07-20T10:06:57;3.20;;;0.90;;
52564;SDS011;38460;53.106;7.004;2023-07-20T10:09:28;4.25;;;1.25;;
52564;SDS011;38460;53.106;7.004;2023-07-20T10:11:54;3.33;;;1.33;;
52564;SDS011;38460;53.106;7.004;2023-07-20T10:14:23;1.95;;;0.82;;
52564;SDS011;38460;53.106;7.004;2023-07-20T10:16:54;3.20;;;1.20;;
52564;SDS011;38460;53.106;7.004;2023-07-20T10:19:42;4.22;;;1.20;;
52564;SDS011;38460;53.106;7.004;2023-07-20T10:22:17;3.20;;;1.25;;
52564;SDS011;38460;53.106;7.004;2023-07-20T10:24:48;3.60;;;1.13;;
52564;SDS011;38460;53.106;7.004;2023-07-20T10:27:15;2.58;;;1.00;;
52564;SDS011;38460;53.106;7.004;2023-07-20T10:29:41;2.28;;;0.93;;
52564;SDS011;38460;53.106;7.004;2023-07-20T10:32:07;3.28;;;1.08;;
52564;SDS011;38460;53.106;7.004;2023-07-20T10:34:34;11.13;;;3.50;;
52564;SDS011;38460;53.106;7.004;2023-07-20T10:37:00;2.55;;;1.30;;
52564;SDS011;38460;53.106;7.004;2023-07-20T10:39:27;2.33;;;1.20;;
52564;SDS011;38460;53.106;7.004;2023-07-20T10:42:02;2.72;;;1.27;;
52564;SDS011;38460;53.106;7.004;2023-07-20T10:44:31;2.03;;;0.90;;
52564;SDS011;38460;53.106;7.004;2023-07-20T10:47:01;2.85;;;0.95;;
52564;SDS011;38460;53.106;7.004;2023-07-20T10:49:27;2.58;;;0.93;;
52564;SDS011;38460;53.106;7.004;2023-07-20T10:51:57;2.40;;;0.98;;
52564;SDS011;38460;53.106;7.004;2023-07-20T10:56:54;2.47;;;0.90;;
52564;SDS011;38460;53.106;7.004;2023-07-20T11:01:59;1.88;;;0.90;;
52564;SDS011;38460;53.106;7.004;2023-07-20T11:04:39;5.03;;;1.17;;
52564;SDS011;38460;53.106;7.004;2023-07-20T11:07:08;2.53;;;0.95;;
52564;SDS011;38460;53.106;7.004;2023-07-20T11:09:38;2.03;;;1.08;;
52564;SDS011;38460;53.106;7.004;2023-07-20T11:12:10;1.92;;;1.00;;
52564;SDS011;38460;53.106;7.004;2023-07-20T11:14:40;2.15;;;0.93;;
52564;SDS011;38460;53.106;7.004;2023-07-20T11:17:14;1.73;;;1.08;;
52564;SDS011;38460;53.106;7.004;2023-07-20T11:19:40;2.25;;;0.80;;
52564;SDS011;38460;53.106;7.004;2023-07-20T11:22:07;3.80;;;0.93;;
52564;SDS011;38460;53.106;7.004;2023-07-20T11:24:34;5.30;;;1.10;;
52564;SDS011;38460;53.106;7.004;2023-07-20T11:27:03;1.50;;;0.80;;
52564;SDS011;38460;53.106;7.004;2023-07-20T11:29:29;2.08;;;0.90;;
52564;SDS011;38460;53.106;7.004;2023-07-20T11:31:56;3.40;;;1.05;;
52564;SDS011;38460;53.106;7.004;2023-07-20T11:34:23;2.25;;;1.10;;
52564;SDS011;38460;53.106;7.004;2023-07-20T11:36:50;1.85;;;0.93;;
52564;SDS011;38460;53.106;7.004;2023-07-20T11:39:19;1.85;;;0.90;;
52564;SDS011;38460;53.106;7.004;2023-07-20T11:41:48;2.33;;;0.80;;
52564;SDS011;38460;53.106;7.004;2023-07-20T11:44:18;2.30;;;1.10;;
52564;SDS011;38460;53.106;7.004;2023-07-20T11:46:46;3.38;;;1.00;;
52564;SDS011;38460;53.106;7.004;2023-07-20T11:49:12;1.63;;;0.73;;
52564;SDS011;38460;53.106;7.004;2023-07-20T11:51:38;1.83;;;0.90;;
52564;SDS011;38460;53.106;7.004;2023-07-20T11:54:06;4.68;;;1.10;;
52564;SDS011;38460;53.106;7.004;2023-07-20T11:56:33;2.53;;;0.90;;
52564;SDS011;38460;53.106;7.004;2023-07-20T11:58:58;2.28;;;0.90;;
52564;SDS011;38460;53.106;7.004;2023-07-20T12:01:26;3.70;;;1.00;;
52564;SDS011;38460;53.106;7.004;2023-07-20T12:04:00;2.50;;;1.00;;
52564;SDS011;38460;53.106;7.004;2023-07-20T12:06:28;2.05;;;0.88;;
52564;SDS011;38460;53.106;7.004;2023-07-20T12:08:55;2.33;;;0.90;;
52564;SDS011;38460;53.106;7.004;2023-07-20T12:11:37;3.33;;;1.10;;
52564;SDS011;38460;53.106;7.004;2023-07-20T12:14:04;2.63;;;0.90;;
52564;SDS011;38460;53.106;7.004;2023-07-20T12:16:32;4.32;;;1.20;;
52564;SDS011;38460;53.106;7.004;2023-07-20T12:19:07;2.03;;;1.15;;
52564;SDS011;38460;53.106;7.004;2023-07-20T12:21:35;2.35;;;0.95;;
52564;SDS011;38460;53.106;7.004;2023-07-20T12:24:02;3.42;;;0.93;;
52564;SDS011;38460;53.106;7.004;2023-07-20T12:26:29;3.25;;;1.20;;
52564;SDS011;38460;53.106;7.004;2023-07-20T12:28:56;1.42;;;0.90;;
52564;SDS011;38460;53.106;7.004;2023-07-20T12:31:22;3.75;;;0.90;;
52564;SDS011;38460;53.106;7.004;2023-07-20T12:33:52;5.25;;;0.90;;
52564;SDS011;38460;53.106;7.004;2023-07-20T12:36:20;2.47;;;1.05;;
52564;SDS011;38460;53.106;7.004;2023-07-20T12:38:46;2.78;;;0.90;;
52564;SDS011;38460;53.106;7.004;2023-07-20T12:41:12;2.90;;;0.88;;
52564;SDS011;38460;53.106;7.004;2023-07-20T12:43:41;1.95;;;0.88;;
52564;SDS011;38460;53.106;7.004;2023-07-20T12:46:08;2.55;;;0.80;;
52564;SDS011;38460;53.106;7.004;2023-07-20T12:48:35;2.90;;;0.95;;
52564;SDS011;38460;53.106;7.004;2023-07-20T12:51:06;4.95;;;0.93;;
52564;SDS011;38460;53.106;7.004;2023-07-20T12:53:32;2.35;;;0.80;;
52564;SDS011;38460;53.106;7.004;2023-07-20T12:55:59;1.85;;;0.90;;
52564;SDS011;38460;53.106;7.004;2023-07-20T12:58:25;2.55;;;1.00;;
52564;SDS011;38460;53.106;7.004;2023-07-20T13:00:51;1.00;;;0.70;;
52564;SDS011;38460;53.106;7.004;2023-07-20T13:03:17;2.45;;;0.95;;
52564;SDS011;38460;53.106;7.004;2023-07-20T13:05:44;3.55;;;1.17;;
52564;SDS011;38460;53.106;7.004;2023-07-20T13:08:11;2.88;;;0.98;;
52564;SDS011;38460;53.106;7.004;2023-07-20T13:10:37;2.42;;;0.80;;
52564;SDS011;38460;53.106;7.004;2023-07-20T13:13:04;2.88;;;1.00;;
52564;SDS011;38460;53.106;7.004;2023-07-20T13:15:30;2.50;;;1.20;;
52564;SDS011;38460;53.106;7.004;2023-07-20T13:17:57;9.98;;;2.13;;
52564;SDS011;38460;53.106;7.004;2023-07-20T13:20:24;4.32;;;1.75;;
52564;SDS011;38460;53.106;7.004;2023-07-20T13:22:51;4.43;;;1.50;;
52564;SDS011;38460;53.106;7.004;2023-07-20T13:25:17;2.92;;;1.30;;
52564;SDS011;38460;53.106;7.004;2023-07-20T13:27:43;4.22;;;1.20;;
52564;SDS011;38460;53.106;7.004;2023-07-20T13:30:09;2.28;;;1.23;;
52564;SDS011;38460;53.106;7.004;2023-07-20T13:32:41;5.28;;;1.33;;
52564;SDS011;38460;53.106;7.004;2023-07-20T13:35:08;3.45;;;1.10;;
52564;SDS011;38460;53.106;7.004;2023-07-20T13:37:34;2.75;;;1.20;;
52564;SDS011;38460;53.106;7.004;2023-07-20T13:40:00;4.47;;;1.33;;
52564;SDS011;38460;53.106;7.004;2023-07-20T13:42:26;6.32;;;1.50;;
52564;SDS011;38460;53.106;7.004;2023-07-20T13:44:52;2.90;;;1.40;;
52564;SDS011;38460;53.106;7.004;2023-07-20T13:47:18;3.97;;;1.17;;
52564;SDS011;38460;53.106;7.004;2023-07-20T13:49:43;3.13;;;1.00;;
52564;SDS011;38460;53.106;7.004;2023-07-20T13:52:09;2.65;;;1.23;;
52564;SDS011;38460;53.106;7.004;2023-07-20T13:54:35;3.13;;;1.13;;
52564;SDS011;38460;53.106;7.004;2023-07-20T13:57:00;2.03;;;1.20;;
52564;SDS011;38460;53.106;7.004;2023-07-20T13:59:27;3.45;;;1.20;;
52564;SDS011;38460;53.106;7.004;2023-07-20T14:01:53;2.78;;;1.23;;
52564;SDS011;38460;53.106;7.004;2023-07-20T14:04:19;2.35;;;1.08;;
52564;SDS011;38460;53.106;7.004;2023-07-20T14:06:44;1.80;;;0.90;;
52564;SDS011;38460;53.106;7.004;2023-07-20T14:09:10;1.08;;;0.70;;
52564;SDS011;38460;53.106;7.004;2023-07-20T14:11:36;1.90;;;1.10;;
52564;SDS011;38460;53.106;7.004;2023-07-20T14:14:02;1.90;;;0.85;;
52564;SDS011;38460;53.106;7.004;2023-07-20T14:16:27;2.63;;;0.75;;
52564;SDS011;38460;53.106;7.004;2023-07-20T14:18:53;2.33;;;0.88;;
52564;SDS011;38460;53.106;7.004;2023-07-20T14:21:19;2.30;;;0.80;;
52564;SDS011;38460;53.106;7.004;2023-07-20T14:23:46;2.63;;;1.00;;
52564;SDS011;38460;53.106;7.004;2023-07-20T14:26:14;2.30;;;0.93;;
52564;SDS011;38460;53.106;7.004;2023-07-20T14:28:41;3.38;;;0.77;;
52564;SDS011;38460;53.106;7.004;2023-07-20T14:31:07;2.35;;;1.00;;
52564;SDS011;38460;53.106;7.004;2023-07-20T14:33:33;1.42;;;0.70;;
52564;SDS011;38460;53.106;7.004;2023-07-20T14:35:59;1.83;;;0.70;;
52564;SDS011;38460;53.106;7.004;2023-07-20T14:38:27;2.70;;;0.73;;
52564;SDS011;38460;53.106;7.004;2023-07-20T14:40:53;1.25;;;0.80;;
52564;SDS011;38460;53.106;7.004;2023-07-20T14:43:19;1.95;;;0.90;;
52564;SDS011;38460;53.106;7.004;2023-07-20T14:45:45;3.13;;;1.08;;
52564;SDS011;38460;53.106;7.004;2023-07-20T14:48:11;2.00;;;0.90;;
52564;SDS011;38460;53.106;7.004;2023-07-20T14:50:37;2.63;;;0.90;;
52564;SDS011;38460;53.106;7.004;2023-07-20T14:53:03;3.55;;;1.02;;
52564;SDS011;38460;53.106;7.004;2023-07-20T14:55:29;3.85;;;1.13;;
52564;SDS011;38460;53.106;7.004;2023-07-20T14:57:54;2.25;;;0.90;;
52564;SDS011;38460;53.106;7.004;2023-07-20T15:00:20;2.53;;;0.95;;
52564;SDS011;38460;53.106;7.004;2023-07-20T15:02:46;3.38;;;1.10;;
52564;SDS011;38460;53.106;7.004;2023-07-20T15:05:12;2.22;;;1.02;;